KCEU

Details ICAO KCEU (CEU)
Name Oconee Co Rgnl
Region United States
Timezone America/New_York (UTC-4.0)
Plans Departing 7
Arriving 15
Stats Elevation 892 ft / 272 m (AMSL)
Location 34.671918° -82.886816°
Runways 1
Magnetic Variation 6.332° W
Sunrise 2018-05-21 10:26:05 UTC / 2018-05-21 06:26:05 Local
Sunset 2018-05-22 00:33:05 UTC / 2018-05-21 20:33:05 Local
Advertisement - Login to hide

Runways

ID Width Length Bearing (true) Bearing (mag) Surface Threshold Offset Overrun Length
07 100 ft / 30 m 4,394 ft / 1,339 m 67.69° 74.02° Asphalt 0 ft / 0 m 0 ft / 0 m
25 100 ft / 30 m 4,394 ft / 1,339 m 247.70° 254.03° Asphalt 0 ft / 0 m 0 ft / 0 m

Map

Weather


0- 5 10 15 20 25 30 35+ Temperature / ° C

Clouds and Precipitation
Forecast for 2018-05-21 18:00 UTC. Updated 23 minutes ago

Ground ~20,000 ft ~40,000 ft Winds

METAR

KCEU 211454Z AUTO VRB04KT 10SM CLR 24/18 A3020 RMK AO2 SLP216 T02440183 50004

TAF

Not found

Frequencies

Recorded 119.27 MHz ASOS
Approach 118.80 MHz GREER APP/DEP
Unicom 122.70 MHz CTAF/UNICOM
Warning: Do not use this data for real-world aviation or navigation. No guarantee of current accuracy is given.